createdAt,value
2022-12-05T00:00:28.693Z,0.97
2022-12-05T00:02:55.291Z,1.30
2022-12-05T00:05:21.927Z,1.00
2022-12-05T00:07:48.550Z,1.27
2022-12-05T00:10:15.263Z,1.07
2022-12-05T00:12:41.841Z,0.90
2022-12-05T00:15:12.368Z,0.80
2022-12-05T00:17:40.674Z,0.93
2022-12-05T00:20:08.038Z,1.10
2022-12-05T00:22:38.417Z,1.07
2022-12-05T00:25:08.540Z,1.30
2022-12-05T00:27:35.130Z,1.00
2022-12-05T00:30:02.166Z,1.00
2022-12-05T00:32:29.607Z,1.23
2022-12-05T00:34:56.396Z,1.00
2022-12-05T00:37:23.323Z,1.10
2022-12-05T00:39:49.964Z,1.03
2022-12-05T00:42:16.571Z,1.20
2022-12-05T00:44:43.156Z,0.93
2022-12-05T00:47:09.810Z,0.80
2022-12-05T00:49:36.444Z,1.10
2022-12-05T00:52:03.049Z,0.80
2022-12-05T00:54:29.700Z,0.77
2022-12-05T00:56:56.404Z,0.97
2022-12-05T00:59:23.065Z,0.70
2022-12-05T01:01:50.588Z,0.90
2022-12-05T01:04:19.920Z,1.00
2022-12-05T01:06:46.597Z,1.00
2022-12-05T01:09:15.444Z,0.83
2022-12-05T01:11:42.421Z,0.90
2022-12-05T01:14:10.208Z,0.90
2022-12-05T01:16:37.570Z,1.03
2022-12-05T01:19:33.660Z,0.90
2022-12-05T01:22:00.350Z,0.73
2022-12-05T01:24:27.522Z,1.07
2022-12-05T01:26:54.255Z,0.80
2022-12-05T01:29:22.102Z,1.00
2022-12-05T01:31:48.834Z,0.90
2022-12-05T01:34:16.354Z,0.80
2022-12-05T01:36:43.220Z,0.83
2022-12-05T01:39:10.295Z,0.90
2022-12-05T01:41:39.156Z,0.70
2022-12-05T01:44:28.980Z,0.70
2022-12-05T01:46:56.135Z,0.70
2022-12-05T01:49:34.516Z,0.60
2022-12-05T01:52:04.451Z,0.70
2022-12-05T01:54:31.028Z,0.70
2022-12-05T01:57:00.013Z,0.63
2022-12-05T01:59:27.231Z,0.63
2022-12-05T02:01:53.840Z,0.80
2022-12-05T02:04:20.469Z,0.90
2022-12-05T02:06:47.076Z,0.93
2022-12-05T02:09:13.693Z,0.63
2022-12-05T02:11:56.913Z,0.57
2022-12-05T02:14:30.502Z,0.60
2022-12-05T02:17:08.570Z,1.03
2022-12-05T02:19:50.244Z,0.47
2022-12-05T02:22:36.135Z,0.60
2022-12-05T02:25:11.896Z,0.77
2022-12-05T02:27:56.760Z,0.80
2022-12-05T02:30:24.052Z,0.53
2022-12-05T02:33:05.148Z,0.60
2022-12-05T02:35:50.420Z,0.70
2022-12-05T02:38:22.842Z,0.60
2022-12-05T02:41:09.684Z,0.60
2022-12-05T02:43:47.314Z,0.50
2022-12-05T02:46:16.979Z,0.50
2022-12-05T02:48:45.781Z,0.60
2022-12-05T02:51:13.188Z,0.40
2022-12-05T02:53:39.767Z,0.60
2022-12-05T02:56:06.604Z,0.60
2022-12-05T02:58:54.184Z,0.53
2022-12-05T03:01:28.502Z,0.50
2022-12-05T03:03:55.174Z,0.63
2022-12-05T03:06:34.940Z,0.57
2022-12-05T03:09:05.712Z,0.60
2022-12-05T03:11:38.265Z,0.70
2022-12-05T03:14:05.333Z,0.60
2022-12-05T03:16:37.376Z,0.53
2022-12-05T03:19:12.107Z,0.60
2022-12-05T03:22:01.183Z,0.60
2022-12-05T03:24:27.794Z,0.50
2022-12-05T03:27:16.451Z,0.57
2022-12-05T03:29:46.473Z,0.70
2022-12-05T03:32:23.570Z,0.53
2022-12-05T03:35:25.810Z,0.77
2022-12-05T03:38:01.553Z,0.60
2022-12-05T03:40:41.605Z,0.80
2022-12-05T03:43:34.329Z,0.70
2022-12-05T03:46:05.033Z,0.50
2022-12-05T03:48:55.911Z,0.70
2022-12-05T03:51:25.809Z,0.63
2022-12-05T03:53:58.244Z,0.70
2022-12-05T03:56:27.917Z,0.67
2022-12-05T03:58:57.888Z,0.80
2022-12-05T04:01:24.947Z,0.70
2022-12-05T04:04:04.358Z,0.60
2022-12-05T04:06:33.304Z,0.80
2022-12-05T04:09:04.938Z,0.70
2022-12-05T04:11:34.659Z,0.50
2022-12-05T04:14:11.736Z,0.70
2022-12-05T04:17:25.701Z,0.63
2022-12-05T04:20:19.359Z,0.70
2022-12-05T04:22:46.027Z,0.73
2022-12-05T04:25:32.209Z,0.60
2022-12-05T04:28:21.535Z,0.50
2022-12-05T04:31:00.793Z,0.60
2022-12-05T04:33:47.937Z,0.50
2022-12-05T04:36:26.439Z,0.77
2022-12-05T04:39:16.093Z,0.60
2022-12-05T04:41:53.515Z,0.50
2022-12-05T04:44:22.717Z,0.80
2022-12-05T04:46:49.430Z,0.60
2022-12-05T04:49:21.750Z,0.70
2022-12-05T04:51:53.155Z,0.60
2022-12-05T04:54:28.989Z,0.60
2022-12-05T04:57:00.992Z,0.80
2022-12-05T04:59:27.929Z,0.60
2022-12-05T05:01:57.112Z,0.73
2022-12-05T05:04:36.183Z,0.50
2022-12-05T05:07:09.595Z,0.80
2022-12-05T05:09:36.279Z,0.60
2022-12-05T05:12:03.013Z,1.10
2022-12-05T05:14:30.002Z,0.80
2022-12-05T05:16:56.756Z,0.60
2022-12-05T05:19:23.396Z,0.80
2022-12-05T05:21:50.536Z,0.87
2022-12-05T05:24:17.325Z,0.80
2022-12-05T05:26:44.388Z,0.70
2022-12-05T05:29:11.237Z,0.70
2022-12-05T05:31:38.173Z,0.70
2022-12-05T05:34:09.371Z,0.70
2022-12-05T05:36:36.394Z,0.53
2022-12-05T05:39:03.295Z,0.83
2022-12-05T05:41:32.044Z,0.60
2022-12-05T05:43:58.962Z,0.57
2022-12-05T05:46:27.339Z,0.60
2022-12-05T05:48:54.081Z,0.50
2022-12-05T05:51:22.827Z,0.50
2022-12-05T05:53:49.704Z,0.50
2022-12-05T05:56:21.452Z,0.50
2022-12-05T05:58:48.973Z,0.50
2022-12-05T06:01:22.257Z,0.47
2022-12-05T06:03:50.633Z,0.43
2022-12-05T06:06:17.783Z,0.40
2022-12-05T06:08:44.677Z,0.60
2022-12-05T06:11:25.418Z,0.50
2022-12-05T06:13:53.670Z,0.30
2022-12-05T06:16:21.142Z,0.30
2022-12-05T06:18:49.159Z,0.33
2022-12-05T06:21:16.533Z,0.40
2022-12-05T06:23:43.385Z,0.30
2022-12-05T06:26:14.991Z,0.50
2022-12-05T06:28:41.820Z,0.50
2022-12-05T06:31:09.968Z,0.60
2022-12-05T06:33:36.713Z,0.50
2022-12-05T06:36:05.221Z,0.70
2022-12-05T06:38:31.885Z,0.70
2022-12-05T06:40:58.562Z,0.77
2022-12-05T06:43:25.183Z,0.90
2022-12-05T06:45:51.865Z,0.90
2022-12-05T06:48:18.702Z,0.90
2022-12-05T06:50:52.088Z,0.80
2022-12-05T06:53:19.580Z,0.83
2022-12-05T06:55:58.638Z,0.80
2022-12-05T06:58:25.468Z,0.90
2022-12-05T07:01:11.050Z,0.80
2022-12-05T07:03:37.857Z,0.60
2022-12-05T07:06:05.800Z,0.83
2022-12-05T07:08:32.656Z,2.73
2022-12-05T07:10:59.266Z,8.40
2022-12-05T07:13:25.921Z,5.47
2022-12-05T07:15:52.524Z,5.70
2022-12-05T07:18:19.149Z,4.93
2022-12-05T07:21:10.603Z,5.37
2022-12-05T07:23:32.384Z,4.57
2022-12-05T07:25:59.044Z,3.57
2022-12-05T07:28:25.724Z,3.57
2022-12-05T07:31:06.306Z,2.03
2022-12-05T07:33:33.027Z,1.50
2022-12-05T07:36:13.154Z,1.30
2022-12-05T07:38:39.999Z,1.00
2022-12-05T07:41:13.553Z,0.90
2022-12-05T07:43:41.266Z,1.00
2022-12-05T07:46:08.250Z,0.90
2022-12-05T07:48:34.872Z,0.83
2022-12-05T07:51:02.882Z,1.20
2022-12-05T07:53:30.055Z,1.70
2022-12-05T07:56:01.988Z,1.60
2022-12-05T07:58:29.115Z,1.40
2022-12-05T08:00:56.548Z,1.30
2022-12-05T08:03:23.241Z,1.13
2022-12-05T08:05:50.028Z,1.13
2022-12-05T08:08:16.632Z,0.90
2022-12-05T08:10:43.311Z,1.20
2022-12-05T08:13:09.935Z,0.90
2022-12-05T08:15:36.751Z,0.97
2022-12-05T08:18:03.455Z,0.93
2022-12-05T08:20:30.562Z,1.00
2022-12-05T08:22:57.366Z,0.80
2022-12-05T08:25:24.052Z,0.80
2022-12-05T08:27:50.682Z,0.90
2022-12-05T08:30:17.440Z,0.80
2022-12-05T08:32:44.048Z,0.93
2022-12-05T08:35:10.708Z,0.97
2022-12-05T08:37:37.309Z,1.10
2022-12-05T08:40:04.768Z,1.00
2022-12-05T08:42:31.578Z,1.60
2022-12-05T08:44:58.377Z,1.00
2022-12-05T08:47:25.174Z,0.90
2022-12-05T08:49:51.786Z,1.00
2022-12-05T08:52:18.386Z,1.00
2022-12-05T08:54:45.053Z,0.97
2022-12-05T08:57:11.646Z,1.10
2022-12-05T08:59:38.281Z,1.33
2022-12-05T09:02:05.062Z,1.53
2022-12-05T09:04:31.736Z,1.20
2022-12-05T09:06:58.326Z,1.07
2022-12-05T09:09:24.938Z,1.03
2022-12-05T09:11:51.529Z,1.03
2022-12-05T09:14:18.242Z,0.80
2022-12-05T09:16:45.940Z,1.00
2022-12-05T09:19:14.937Z,0.90
2022-12-05T09:21:42.007Z,0.90
2022-12-05T09:24:12.836Z,0.80
2022-12-05T09:26:39.944Z,0.90
2022-12-05T09:29:08.823Z,1.00
2022-12-05T09:31:38.817Z,1.00
2022-12-05T09:34:05.857Z,1.03
2022-12-05T09:36:36.005Z,1.30
2022-12-05T09:39:04.835Z,1.20
2022-12-05T09:42:05.561Z,1.30
2022-12-05T09:48:20.190Z,1.50
2022-12-05T09:50:49.295Z,1.63
2022-12-05T09:53:28.116Z,1.53
2022-12-05T09:56:05.559Z,1.80
2022-12-05T09:58:50.957Z,1.70
2022-12-05T10:01:42.031Z,1.90
2022-12-05T10:04:46.972Z,1.80
2022-12-05T10:07:31.739Z,1.77
2022-12-05T10:10:19.634Z,1.87
2022-12-05T10:13:08.743Z,1.50
2022-12-05T10:15:42.792Z,2.07
2022-12-05T10:18:41.078Z,1.87
2022-12-05T10:21:25.858Z,2.07
2022-12-05T10:24:04.121Z,2.30
2022-12-05T10:26:44.210Z,1.90
2022-12-05T10:29:31.849Z,2.00
2022-12-05T10:32:16.113Z,2.00
2022-12-05T10:34:43.403Z,1.90
2022-12-05T10:37:11.761Z,1.97
2022-12-05T10:39:38.624Z,2.00
2022-12-05T10:42:05.453Z,1.90
2022-12-05T10:44:32.400Z,1.90
2022-12-05T10:46:59.384Z,1.70
2022-12-05T10:49:26.017Z,2.00
2022-12-05T10:51:52.629Z,1.80
2022-12-05T10:54:25.883Z,1.80
2022-12-05T10:56:53.085Z,1.93
2022-12-05T10:59:21.690Z,1.80
2022-12-05T11:01:54.019Z,1.83
2022-12-05T11:04:32.714Z,2.03
2022-12-05T11:07:04.511Z,1.97
2022-12-05T11:09:31.553Z,1.70
2022-12-05T11:12:02.816Z,1.73
2022-12-05T11:14:29.876Z,1.80
2022-12-05T11:16:58.055Z,1.70
2022-12-05T11:19:30.017Z,1.93
2022-12-05T11:21:56.813Z,1.80
2022-12-05T11:24:26.246Z,1.83
2022-12-05T11:26:52.845Z,1.60
2022-12-05T11:29:35.726Z,1.80
2022-12-05T11:32:09.204Z,1.80
2022-12-05T11:34:39.816Z,1.60
2022-12-05T11:37:12.262Z,2.00
2022-12-05T11:39:38.941Z,2.07
2022-12-05T11:42:14.458Z,1.90
2022-12-05T11:44:55.997Z,2.00
2022-12-05T11:47:47.717Z,1.70
2022-12-05T11:50:20.199Z,1.90
2022-12-05T11:53:24.665Z,1.83
2022-12-05T11:56:14.488Z,2.27
2022-12-05T11:58:56.874Z,1.87
2022-12-05T12:01:58.763Z,1.70
2022-12-05T12:04:41.509Z,4.43
2022-12-05T12:07:46.038Z,4.13
2022-12-05T12:10:53.532Z,2.50
2022-12-05T12:13:35.363Z,2.03
2022-12-05T12:16:08.592Z,1.90
2022-12-05T12:18:44.439Z,1.90
2022-12-05T12:21:26.641Z,1.90
2022-12-05T12:24:10.810Z,1.50
2022-12-05T12:27:00.109Z,1.50
2022-12-05T12:29:34.512Z,1.40
2022-12-05T12:32:18.401Z,1.50
2022-12-05T12:35:08.495Z,1.60
2022-12-05T12:37:57.519Z,1.47
2022-12-05T12:40:53.701Z,1.30
2022-12-05T12:43:52.628Z,1.60
2022-12-05T12:46:39.162Z,1.70
2022-12-05T12:49:43.917Z,1.50
2022-12-05T12:52:55.250Z,1.27
2022-12-05T12:55:29.908Z,1.70
2022-12-05T12:58:15.390Z,1.47
2022-12-05T13:01:07.220Z,1.40
2022-12-05T13:04:12.610Z,1.40
2022-12-05T13:06:47.372Z,1.53
2022-12-05T13:09:51.883Z,1.70
2022-12-05T13:12:22.115Z,1.70
2022-12-05T13:15:16.109Z,1.63
2022-12-05T13:17:44.053Z,1.50
2022-12-05T13:20:18.207Z,1.60
2022-12-05T13:22:45.135Z,1.80
2022-12-05T13:25:19.142Z,1.73
2022-12-05T13:27:56.798Z,1.60
2022-12-05T13:30:23.609Z,1.90
2022-12-05T13:32:58.111Z,1.70
2022-12-05T13:35:51.489Z,1.67
2022-12-05T13:38:41.801Z,1.80
2022-12-05T13:41:26.682Z,1.50
2022-12-05T13:44:05.501Z,1.50
2022-12-05T13:46:33.694Z,1.73
2022-12-05T13:49:17.588Z,1.80
2022-12-05T13:51:44.641Z,1.83
2022-12-05T13:54:12.279Z,1.87
2022-12-05T13:57:01.472Z,2.40
2022-12-05T14:00:06.168Z,2.00
2022-12-05T14:02:42.169Z,1.70
2022-12-05T14:05:21.138Z,2.10
2022-12-05T14:07:51.667Z,1.93
2022-12-05T14:10:36.565Z,2.00
2022-12-05T14:13:16.333Z,1.60
2022-12-05T14:15:45.190Z,1.70
2022-12-05T14:18:22.983Z,1.67
2022-12-05T14:21:11.170Z,1.60
2022-12-05T14:23:51.672Z,2.00
2022-12-05T14:26:32.727Z,1.63
2022-12-05T14:29:11.216Z,1.70
2022-12-05T14:31:53.024Z,1.90
2022-12-05T14:35:00.897Z,1.70
2022-12-05T14:37:56.338Z,2.03
2022-12-05T14:40:35.423Z,1.70
2022-12-05T14:43:23.022Z,2.13
2022-12-05T14:45:52.695Z,1.60
2022-12-05T14:48:26.590Z,2.10
2022-12-05T14:50:54.046Z,2.00
2022-12-05T14:53:20.561Z,2.10
2022-12-05T14:55:53.536Z,2.40
2022-12-05T14:58:56.843Z,2.07
2022-12-05T15:01:33.367Z,2.27
2022-12-05T15:04:13.488Z,2.03
2022-12-05T15:06:58.157Z,2.10
2022-12-05T15:09:36.898Z,2.10
2022-12-05T15:12:09.574Z,2.07
2022-12-05T15:14:43.584Z,2.13
2022-12-05T15:17:13.228Z,2.37
2022-12-05T15:19:47.607Z,2.13
2022-12-05T15:22:14.548Z,2.47
2022-12-05T15:24:41.113Z,2.37
2022-12-05T15:27:11.557Z,2.30
2022-12-05T15:29:38.838Z,2.47
2022-12-05T15:32:11.548Z,2.23
2022-12-05T15:34:50.138Z,2.10
2022-12-05T15:37:29.985Z,2.10
2022-12-05T15:40:00.343Z,2.10
2022-12-05T15:42:30.958Z,2.00
2022-12-05T15:45:15.709Z,2.03
2022-12-05T15:47:54.021Z,2.00
2022-12-05T15:50:38.444Z,2.20
2022-12-05T15:53:27.212Z,2.20
2022-12-05T15:56:20.884Z,1.63
2022-12-05T15:59:09.004Z,2.10
2022-12-05T16:01:45.021Z,2.50
2022-12-05T16:04:15.758Z,3.37
2022-12-05T16:06:53.216Z,5.00
2022-12-05T16:09:24.563Z,5.10
2022-12-05T16:12:00.123Z,3.80
2022-12-05T16:17:25.835Z,2.93
2022-12-05T16:19:52.398Z,2.70
2022-12-05T16:22:21.963Z,2.80
2022-12-05T16:24:54.547Z,2.83
2022-12-05T16:27:38.824Z,2.80
2022-12-05T16:30:18.735Z,3.00
2022-12-05T16:32:45.897Z,2.80
2022-12-05T16:35:30.788Z,2.07
2022-12-05T16:38:11.679Z,1.93
2022-12-05T16:40:39.769Z,1.50
2022-12-05T16:43:17.102Z,1.57
2022-12-05T16:45:44.880Z,1.70
2022-12-05T16:48:15.291Z,1.50
2022-12-05T16:50:42.237Z,1.23
2022-12-05T16:53:08.732Z,1.43
2022-12-05T16:55:38.293Z,1.37
2022-12-05T16:58:04.929Z,1.17
2022-12-05T17:00:31.781Z,1.27
2022-12-05T17:03:18.443Z,1.40
2022-12-05T17:05:45.038Z,1.20
2022-12-05T17:08:11.627Z,1.20
2022-12-05T17:10:39.428Z,1.30
2022-12-05T17:13:06.003Z,1.60
2022-12-05T17:15:33.035Z,1.30
2022-12-05T17:17:59.905Z,1.53
2022-12-05T17:20:26.800Z,1.43
2022-12-05T17:22:53.384Z,2.13
2022-12-05T17:25:31.381Z,1.50
2022-12-05T17:28:01.430Z,1.50
2022-12-05T17:30:28.057Z,1.70
2022-12-05T17:32:54.987Z,1.60
2022-12-05T17:35:22.032Z,1.60
2022-12-05T17:37:49.749Z,1.63
2022-12-05T17:40:16.727Z,1.53
2022-12-05T17:42:43.374Z,1.67
2022-12-05T17:45:12.814Z,1.80
2022-12-05T17:47:40.018Z,1.87
2022-12-05T17:50:07.167Z,1.97
2022-12-05T17:52:33.871Z,1.83
2022-12-05T17:55:00.852Z,1.77
2022-12-05T17:57:27.588Z,1.90
2022-12-05T17:59:54.224Z,1.57
2022-12-05T18:02:20.967Z,1.60
2022-12-05T18:04:47.580Z,1.40
2022-12-05T18:07:14.163Z,1.67
2022-12-05T18:09:40.909Z,1.20
2022-12-05T18:12:07.821Z,1.47
2022-12-05T18:14:35.975Z,1.60
2022-12-05T18:17:03.788Z,1.80
2022-12-05T18:19:30.391Z,1.77
2022-12-05T18:21:57.039Z,1.47
2022-12-05T18:24:23.672Z,1.70
2022-12-05T18:26:50.284Z,1.23
2022-12-05T18:29:16.995Z,1.60
2022-12-05T18:31:43.698Z,1.20
2022-12-05T18:34:10.322Z,1.10
2022-12-05T18:36:36.947Z,1.40
2022-12-05T18:39:03.836Z,1.00
2022-12-05T18:41:30.515Z,1.57
2022-12-05T18:43:57.123Z,1.00
2022-12-05T18:46:24.134Z,1.20
2022-12-05T18:48:50.840Z,1.20
2022-12-05T18:51:21.865Z,1.23
2022-12-05T18:53:53.226Z,1.30
2022-12-05T18:56:40.072Z,1.53
2022-12-05T18:59:08.342Z,1.43
2022-12-05T19:01:37.378Z,1.23
2022-12-05T19:04:04.308Z,1.53
2022-12-05T19:06:32.057Z,1.40
2022-12-05T19:09:06.384Z,1.60
2022-12-05T19:11:33.155Z,1.60
2022-12-05T19:14:01.388Z,1.47
2022-12-05T19:16:28.752Z,1.37
2022-12-05T19:18:56.793Z,1.40
2022-12-05T19:21:24.080Z,1.60
2022-12-05T19:23:50.734Z,1.40
2022-12-05T19:26:17.349Z,1.33
2022-12-05T19:28:43.946Z,1.63
2022-12-05T19:31:12.548Z,1.70
2022-12-05T19:33:43.859Z,1.60
2022-12-05T19:36:27.525Z,1.70
2022-12-05T19:38:54.331Z,1.47
2022-12-05T19:41:25.898Z,1.70
2022-12-05T19:43:52.622Z,1.77
2022-12-05T19:46:20.192Z,1.47
2022-12-05T19:48:47.024Z,1.80
2022-12-05T19:51:13.697Z,1.37
2022-12-05T19:53:41.544Z,1.60
2022-12-05T19:56:27.362Z,1.40
2022-12-05T19:58:54.779Z,1.50
2022-12-05T20:01:22.681Z,1.60
2022-12-05T20:04:00.092Z,1.70
2022-12-05T20:06:29.597Z,1.60
2022-12-05T20:08:56.226Z,1.60
2022-12-05T20:11:24.870Z,2.00
2022-12-05T20:13:52.300Z,1.30
2022-12-05T20:16:21.353Z,1.20
2022-12-05T20:18:48.730Z,1.70
2022-12-05T20:21:18.221Z,1.70
2022-12-05T20:23:44.873Z,1.80
2022-12-05T20:26:13.398Z,1.70
2022-12-05T20:28:40.099Z,1.67
2022-12-05T20:31:14.300Z,1.80
2022-12-05T20:33:41.045Z,1.43
2022-12-05T20:36:09.928Z,1.57
2022-12-05T20:38:36.535Z,1.73
2022-12-05T20:41:05.187Z,1.80
2022-12-05T20:43:31.865Z,1.63
2022-12-05T20:46:07.096Z,1.47
2022-12-05T20:48:34.111Z,1.50
2022-12-05T20:51:05.324Z,1.60
2022-12-05T20:53:34.205Z,1.50
2022-12-05T20:56:08.536Z,1.70
2022-12-05T20:58:35.269Z,1.60
2022-12-05T21:01:03.071Z,1.37
2022-12-05T21:03:29.823Z,1.27
2022-12-05T21:05:56.583Z,1.37
2022-12-05T21:08:23.376Z,1.20
2022-12-05T21:10:50.609Z,1.20
2022-12-05T21:13:17.700Z,1.27
2022-12-05T21:15:44.321Z,1.37
2022-12-05T21:18:11.095Z,1.60
2022-12-05T21:20:42.113Z,1.60
2022-12-05T21:23:09.379Z,1.23
2022-12-05T21:25:36.009Z,1.30
2022-12-05T21:28:02.734Z,1.13
2022-12-05T21:30:29.373Z,1.37
2022-12-05T21:32:56.045Z,1.10
2022-12-05T21:35:22.670Z,1.60
2022-12-05T21:37:49.281Z,1.77
2022-12-05T21:40:15.929Z,1.30
2022-12-05T21:42:42.542Z,1.27
2022-12-05T21:45:09.445Z,1.70
2022-12-05T21:47:36.110Z,1.30
2022-12-05T21:50:02.703Z,1.80
2022-12-05T21:52:29.315Z,1.67
2022-12-05T21:54:55.918Z,1.73
2022-12-05T21:57:22.608Z,1.60
2022-12-05T21:59:49.217Z,1.33
2022-12-05T22:02:15.854Z,1.70
2022-12-05T22:04:42.503Z,1.43
2022-12-05T22:07:09.127Z,1.50
2022-12-05T22:09:35.781Z,1.63
2022-12-05T22:12:02.409Z,1.70
2022-12-05T22:14:28.991Z,1.40
2022-12-05T22:16:55.588Z,1.80
2022-12-05T22:19:22.193Z,1.80
2022-12-05T22:21:49.499Z,1.70
2022-12-05T22:24:16.418Z,1.50
2022-12-05T22:26:43.019Z,1.70
2022-12-05T22:29:09.855Z,1.60
2022-12-05T22:31:36.579Z,1.77
2022-12-05T22:34:03.232Z,1.77
2022-12-05T22:36:29.845Z,1.70
2022-12-05T22:38:56.448Z,1.83
2022-12-05T22:41:24.494Z,2.00
2022-12-05T22:43:55.492Z,2.00
2022-12-05T22:46:22.162Z,1.97
2022-12-05T22:48:49.306Z,1.83
2022-12-05T22:51:16.226Z,1.90
2022-12-05T22:53:42.935Z,1.83
2022-12-05T22:56:14.396Z,1.60
2022-12-05T22:58:41.275Z,2.23
2022-12-05T23:01:17.893Z,1.93
2022-12-05T23:03:45.870Z,1.80
2022-12-05T23:06:13.592Z,2.27
2022-12-05T23:08:41.054Z,1.90
2022-12-05T23:11:07.935Z,2.30
2022-12-05T23:13:34.855Z,2.33
2022-12-05T23:16:09.004Z,2.13
2022-12-05T23:18:46.555Z,2.10
2022-12-05T23:21:18.448Z,2.10
2022-12-05T23:23:45.736Z,1.93
2022-12-05T23:26:12.988Z,2.40
2022-12-05T23:28:39.637Z,2.20
2022-12-05T23:31:07.223Z,2.00
2022-12-05T23:33:34.160Z,1.90
2022-12-05T23:36:00.824Z,2.10
2022-12-05T23:38:27.488Z,1.90
2022-12-05T23:41:07.343Z,1.90
2022-12-05T23:43:34.947Z,2.00
2022-12-05T23:46:02.362Z,2.13
2022-12-05T23:48:29.490Z,2.07
2022-12-05T23:51:07.340Z,2.00
2022-12-05T23:53:35.141Z,1.63
2022-12-05T23:56:02.698Z,1.97
2022-12-05T23:58:30.669Z,1.70
